This is the latest recevied weather packets stored in our database for station/object KO4YAW. If no packets are shown the sender has not sent any weather packets the latest 10 day(s).
| Time | Temp. | Humidity | Pressure | Rain* | Wind** | Luminosity | Snow |
|---|---|---|---|---|---|---|---|
| 1788122904 | 28.33° C | 36% | 1019.3 hPa | 0 mm | - | 146 W/m² | - |
| 1788122004 | 28.89° C | 28% | 1018.3 hPa | 0 mm | - | 234 W/m² | - |
| 1788121104 | 29.44° C | 27% | 1018.2 hPa | 0 mm | - | 328 W/m² | - |
| 1788120204 | 28.89° C | 29% | 1017.9 hPa | 0 mm | - | 323 W/m² | - |
| 1788119304 | 27.78° C | 31% | 1017.9 hPa | 0 mm | - | 341 W/m² | - |
| 1788118404 | 28.33° C | 30% | 1018 hPa | 0 mm | - | 325 W/m² | - |
| 1788117504 | 28.33° C | 30% | 1018.2 hPa | 0 mm | - | 435 W/m² | - |
| 1788116604 | 27.78° C | 33% | 1018.3 hPa | 0 mm | - | 377 W/m² | - |
| 1788115704 | 27.22° C | 34% | 1018.5 hPa | 0 mm | - | 315 W/m² | - |
| 1788114804 | 27.22° C | 35% | 1018.6 hPa | 0 mm | - | 311 W/m² | - |
| 1788113904 | 27.22° C | 34% | 1018.8 hPa | 0 mm | - | 321 W/m² | - |
| 1788113004 | 26.67° C | 34% | 1019 hPa | 0 mm | - | 464 W/m² | - |
| 1788112104 | 26.11° C | 36% | 1019.2 hPa | 0 mm | - | 292 W/m² | - |
| 1788111204 | 25.56° C | 37% | 1019.5 hPa | 0 mm | - | 276 W/m² | - |
| 1788110304 | 24.44° C | 41% | 1019.6 hPa | 0 mm | - | 372 W/m² | - |
| 1788109404 | 23.89° C | 42% | 1019.6 hPa | 0 mm | - | 251 W/m² | - |
| 1788108504 | 23.33° C | 42% | 1019.9 hPa | 0 mm | - | 258 W/m² | - |
| 1788107604 | 22.78° C | 45% | 1020.2 hPa | 0 mm | - | 233 W/m² | - |
| 1788106704 | 22.22° C | 46% | 1020.1 hPa | 0 mm | - | 281 W/m² | - |
| 1788105804 | 21.67° C | 50% | 1020.3 hPa | 0 mm | - | 205 W/m² | - |
| 1788104904 | 21.11° C | 50% | 1019.9 hPa | 0 mm | - | 193 W/m² | - |
| 1788104004 | 20.56° C | 49% | 1019.6 hPa | 0 mm | - | 175 W/m² | - |
| 1788103104 | 20.56° C | 52% | 1019.5 hPa | 0 mm | - | 138 W/m² | - |
| 1788102204 | 20° C | 53% | 1019.5 hPa | 0 mm | - | 149 W/m² | - |
| 1788101287 | 19.44° C | 55% | 1019.6 hPa | 0 mm | - | 116 W/m² | - |
* Rain since midnight (hover to see other rain measurements)
** Current wind speed in m/s (hover to see current wind gust speed)